createdAt,value
2023-04-20T00:00:25.093Z,99910.26
2023-04-20T00:02:53.785Z,99904.97
2023-04-20T00:05:21.146Z,99896.29
2023-04-20T00:07:49.281Z,99887.10
2023-04-20T00:10:16.873Z,99882.52
2023-04-20T00:12:44.442Z,99881.13
2023-04-20T00:15:11.682Z,99876.87
2023-04-20T00:17:39.444Z,99875.08
2023-04-20T00:20:09.946Z,99873.63
2023-04-20T00:22:38.145Z,99874.66
2023-04-20T00:25:05.928Z,99871.48
2023-04-20T00:27:33.578Z,99870.40
2023-04-20T00:30:00.826Z,99870.38
2023-04-20T00:32:29.950Z,99874.22
2023-04-20T00:34:57.120Z,99873.47
2023-04-20T00:37:25.341Z,99875.39
2023-04-20T00:39:55.358Z,99875.20
2023-04-20T00:42:22.524Z,99876.09
2023-04-20T00:44:51.507Z,99876.77
2023-04-20T00:47:18.691Z,99876.61
2023-04-20T00:49:46.084Z,99870.75
2023-04-20T00:52:13.252Z,99871.27
2023-04-20T00:54:40.527Z,99863.18
2023-04-20T00:57:07.861Z,99857.53
2023-04-20T00:59:35.622Z,99858.77
2023-04-20T01:02:02.872Z,99869.48
2023-04-20T01:04:30.771Z,99871.27
2023-04-20T01:06:58.711Z,99868.95
2023-04-20T01:09:25.887Z,99859.19
2023-04-20T01:11:53.018Z,99860.59
2023-04-20T01:14:20.119Z,99859.89
2023-04-20T01:16:47.354Z,99858.16
2023-04-20T01:19:14.574Z,99851.48
2023-04-20T01:21:42.634Z,99834.52
2023-04-20T01:24:09.721Z,99815.09
2023-04-20T01:26:36.944Z,99807.34
2023-04-20T01:29:04.594Z,99802.73
2023-04-20T01:31:31.962Z,99801.85
2023-04-20T01:33:59.220Z,99800.42
2023-04-20T01:36:26.664Z,99805.96
2023-04-20T01:38:53.813Z,99802.74
2023-04-20T01:41:21.585Z,99805.02
2023-04-20T01:43:49.136Z,99803.59
2023-04-20T01:46:16.819Z,99802.51
2023-04-20T01:48:44.073Z,99796.30
2023-04-20T01:51:12.011Z,99794.13
2023-04-20T01:53:39.784Z,99791.08
2023-04-20T01:56:08.621Z,99791.38
2023-04-20T01:58:36.132Z,99787.79
2023-04-20T02:01:03.404Z,99796.62
2023-04-20T02:03:31.066Z,99803.68
2023-04-20T02:05:59.121Z,99805.60
2023-04-20T02:08:30.254Z,99798.70
2023-04-20T02:10:58.021Z,99804.52
2023-04-20T02:13:25.298Z,99811.74
2023-04-20T02:15:52.524Z,99819.48
2023-04-20T02:18:19.775Z,99815.96
2023-04-20T02:20:47.162Z,99813.52
2023-04-20T02:23:14.513Z,99806.12
2023-04-20T02:25:42.142Z,99795.17
2023-04-20T02:28:11.750Z,99782.91
2023-04-20T02:30:39.115Z,99780.02
2023-04-20T02:33:14.269Z,99781.30
2023-04-20T02:35:44.156Z,99775.16
2023-04-20T02:38:11.716Z,99760.19
2023-04-20T02:40:39.387Z,99751.38
2023-04-20T02:43:06.935Z,99749.96
2023-04-20T02:45:34.516Z,99748.91
2023-04-20T02:48:02.362Z,99753.52
2023-04-20T02:50:30.963Z,99757.44
2023-04-20T02:53:18.803Z,99760.48
2023-04-20T02:55:50.260Z,99764.01
2023-04-20T02:58:27.810Z,99771.09
2023-04-20T03:01:13.916Z,99769.17
2023-04-20T03:03:41.360Z,99767.05
2023-04-20T03:06:12.134Z,99765.30
2023-04-20T03:08:40.286Z,99764.27
2023-04-20T03:11:27.518Z,99766.75
2023-04-20T03:13:55.084Z,99769.58
2023-04-20T03:16:22.703Z,99764.82
2023-04-20T03:18:53.055Z,99758.63
2023-04-20T03:21:22.054Z,99758.25
2023-04-20T03:23:50.110Z,99760.51
2023-04-20T03:26:18.185Z,99759.23
2023-04-20T03:29:04.994Z,99754.59
2023-04-20T03:31:32.405Z,99758.09
2023-04-20T03:34:00.941Z,99760.23
2023-04-20T03:36:29.628Z,99760.74
2023-04-20T03:38:57.068Z,99753.34
2023-04-20T03:41:24.567Z,99755.24
2023-04-20T03:43:52.011Z,99759.45
2023-04-20T03:46:20.910Z,99761.17
2023-04-20T03:48:49.075Z,99758.99
2023-04-20T03:51:16.852Z,99760.22
2023-04-20T03:53:44.449Z,99755.99
2023-04-20T03:56:14.909Z,99762.75
2023-04-20T03:58:42.778Z,99760.64
2023-04-20T04:01:15.345Z,99763.30
2023-04-20T04:03:46.033Z,99768.02
2023-04-20T04:06:13.966Z,99768.00
2023-04-20T04:08:41.511Z,99766.02
2023-04-20T04:11:09.372Z,99765.45
2023-04-20T04:13:37.037Z,99767.77
2023-04-20T04:16:06.028Z,99770.13
2023-04-20T04:18:33.714Z,99769.28
2023-04-20T04:21:07.704Z,99768.27
2023-04-20T04:23:37.107Z,99774.24
2023-04-20T04:26:13.463Z,99770.91
2023-04-20T04:28:45.530Z,99769.90
2023-04-20T04:31:21.088Z,99769.45
2023-04-20T04:33:49.157Z,99770.91
2023-04-20T04:36:26.664Z,99768.45
2023-04-20T04:38:54.330Z,99767.19
2023-04-20T04:41:23.093Z,99763.30
2023-04-20T04:43:50.858Z,99766.15
2023-04-20T04:46:27.189Z,99767.41
2023-04-20T04:48:56.123Z,99764.80
2023-04-20T04:51:23.912Z,99763.95
2023-04-20T04:53:51.776Z,99761.52
2023-04-20T04:56:20.541Z,99759.98
2023-04-20T04:58:47.950Z,99762.16
2023-04-20T05:01:15.345Z,99764.67
2023-04-20T05:03:42.703Z,99765.21
2023-04-20T05:06:10.463Z,99769.12
2023-04-20T05:08:37.649Z,99773.41
2023-04-20T05:11:05.411Z,99775.92
2023-04-20T05:13:32.731Z,99777.02
2023-04-20T05:15:59.721Z,99779.02
2023-04-20T05:18:27.027Z,99776.94
2023-04-20T05:20:54.593Z,99775.91
2023-04-20T05:23:21.865Z,99773.80
2023-04-20T05:25:51.455Z,99775.92
2023-04-20T05:28:19.342Z,99775.94
2023-04-20T05:30:46.879Z,99778.04
2023-04-20T05:33:15.875Z,99776.63
2023-04-20T05:35:43.018Z,99771.73
2023-04-20T05:38:10.377Z,99771.56
2023-04-20T05:40:37.739Z,99773.69
2023-04-20T05:43:05.901Z,99779.52
2023-04-20T05:45:34.240Z,99776.70
2023-04-20T05:48:01.797Z,99785.55
2023-04-20T05:50:31.039Z,99785.60
2023-04-20T05:52:58.296Z,99783.52
2023-04-20T05:55:26.574Z,99780.21
2023-04-20T05:57:53.953Z,99784.83
2023-04-20T06:00:23.073Z,99785.39
2023-04-20T06:02:52.021Z,99783.32
2023-04-20T06:05:20.605Z,99792.34
2023-04-20T06:07:48.058Z,99795.19
2023-04-20T06:10:15.613Z,99793.80
2023-04-20T06:12:43.072Z,99796.80
2023-04-20T06:15:10.420Z,99796.45
2023-04-20T06:17:39.974Z,99792.02
2023-04-20T06:20:08.915Z,99789.89
2023-04-20T06:22:42.510Z,99790.19
2023-04-20T06:25:11.525Z,99788.75
2023-04-20T06:27:39.476Z,99793.16
2023-04-20T06:30:07.753Z,99792.45
2023-04-20T06:32:37.503Z,99791.02
2023-04-20T06:35:08.548Z,99791.34
2023-04-20T06:37:36.479Z,99790.59
2023-04-20T06:40:10.417Z,99789.30
2023-04-20T06:42:37.716Z,99792.98
2023-04-20T06:45:06.319Z,99791.73
2023-04-20T06:47:33.856Z,99789.80
2023-04-20T06:50:01.748Z,99788.77
2023-04-20T06:52:30.226Z,99784.13
2023-04-20T06:55:00.708Z,99785.68
2023-04-20T06:57:28.499Z,99792.03
2023-04-20T07:00:15.948Z,99792.73
2023-04-20T07:02:45.080Z,99790.42
2023-04-20T07:05:13.432Z,99787.12
2023-04-20T07:07:41.608Z,99784.30
2023-04-20T07:10:11.197Z,99776.23
2023-04-20T07:12:40.401Z,99772.52
2023-04-20T07:15:10.121Z,99766.13
2023-04-20T07:17:37.418Z,99760.48
2023-04-20T07:20:07.905Z,99757.56
2023-04-20T07:22:36.604Z,99756.63
2023-04-20T07:25:05.587Z,99747.52
2023-04-20T07:27:40.289Z,99742.55
2023-04-20T07:30:08.458Z,99736.30
2023-04-20T07:32:35.971Z,99738.54
2023-04-20T07:35:03.713Z,99747.61
2023-04-20T07:37:32.577Z,99758.64
2023-04-20T07:39:59.827Z,99755.61
2023-04-20T07:42:27.196Z,99756.77
2023-04-20T07:44:54.613Z,99758.45
2023-04-20T07:47:22.069Z,99757.53
2023-04-20T07:49:49.452Z,99755.69
2023-04-20T07:52:17.933Z,99761.44
2023-04-20T07:54:45.676Z,99760.67
2023-04-20T07:57:13.268Z,99755.41
2023-04-20T07:59:41.336Z,99757.95
2023-04-20T08:02:08.985Z,99756.98
2023-04-20T08:04:38.197Z,99763.05
2023-04-20T08:07:05.640Z,99759.36
2023-04-20T08:09:32.947Z,99761.30
2023-04-20T08:12:01.915Z,99762.66
2023-04-20T08:14:29.465Z,99764.27
2023-04-20T08:16:56.905Z,99767.28
2023-04-20T08:19:24.057Z,99766.36
2023-04-20T08:21:52.029Z,99773.24
2023-04-20T08:24:20.391Z,99777.96
2023-04-20T08:26:47.890Z,99785.20
2023-04-20T08:29:15.620Z,99783.65
2023-04-20T08:31:43.144Z,99785.30
2023-04-20T08:34:11.761Z,99784.96
2023-04-20T08:36:39.477Z,99785.83
2023-04-20T08:39:11.275Z,99785.89
2023-04-20T08:41:38.744Z,99792.51
2023-04-20T08:44:07.225Z,99790.45
2023-04-20T08:46:34.628Z,99789.98
2023-04-20T08:49:03.583Z,99790.20
2023-04-20T08:51:32.108Z,99794.66
2023-04-20T08:54:04.976Z,99796.27
2023-04-20T08:56:36.136Z,99799.10
2023-04-20T08:59:05.084Z,99801.43
2023-04-20T09:01:35.634Z,99802.48
2023-04-20T09:04:15.450Z,99801.83
2023-04-20T09:06:44.536Z,99803.30
2023-04-20T09:09:11.787Z,99810.03
2023-04-20T09:11:40.174Z,99798.59
2023-04-20T09:14:13.762Z,99803.18
2023-04-20T09:16:51.812Z,99807.77
2023-04-20T09:19:25.483Z,99810.59
2023-04-20T09:21:55.283Z,99806.67
2023-04-20T09:24:24.117Z,99810.20
2023-04-20T09:26:51.129Z,99816.23
2023-04-20T09:29:20.215Z,99816.25
2023-04-20T09:31:48.232Z,99819.96
2023-04-20T09:34:15.902Z,99820.89
2023-04-20T09:36:49.858Z,99820.06
2023-04-20T09:39:18.956Z,99813.38
2023-04-20T09:41:46.524Z,99809.16
2023-04-20T09:44:15.713Z,99807.57
2023-04-20T09:46:43.574Z,99799.98
2023-04-20T09:49:12.052Z,99806.86
2023-04-20T09:51:46.601Z,99797.02
2023-04-20T09:54:15.302Z,99795.63
2023-04-20T09:56:42.722Z,99786.06
2023-04-20T09:59:10.080Z,99782.95
2023-04-20T10:01:37.882Z,99780.52
2023-04-20T10:04:10.541Z,99781.80
2023-04-20T10:06:37.881Z,99785.01
2023-04-20T10:09:06.481Z,99784.54
2023-04-20T10:11:51.604Z,99787.43
2023-04-20T10:14:25.061Z,99787.31
2023-04-20T10:16:59.500Z,99781.40
2023-04-20T10:19:56.326Z,99795.64
2023-04-20T10:22:34.300Z,99791.91
2023-04-20T10:25:02.275Z,99793.52
2023-04-20T10:27:31.775Z,99789.48
2023-04-20T10:30:11.334Z,99792.16
2023-04-20T10:32:38.756Z,99788.54
2023-04-20T10:35:08.078Z,99795.33
2023-04-20T10:37:35.723Z,99798.92
2023-04-20T10:40:06.005Z,99796.30
2023-04-20T10:42:45.137Z,99800.73
2023-04-20T10:45:12.851Z,99801.77
2023-04-20T10:47:44.648Z,99807.92
2023-04-20T10:50:13.899Z,99809.69
2023-04-20T10:52:41.978Z,99809.64
2023-04-20T10:55:20.383Z,99811.56
2023-04-20T10:57:54.540Z,99813.73
2023-04-20T11:00:32.504Z,99819.72
2023-04-20T11:02:59.882Z,99818.80
2023-04-20T11:05:27.208Z,99825.90
2023-04-20T11:07:55.109Z,99822.92
2023-04-20T11:10:24.278Z,99820.45
2023-04-20T11:13:07.714Z,99817.30
2023-04-20T11:15:35.059Z,99819.95
2023-04-20T11:18:11.388Z,99820.29
2023-04-20T11:20:52.239Z,99813.54
2023-04-20T11:23:20.879Z,99817.59
2023-04-20T11:25:52.565Z,99821.42
2023-04-20T11:28:20.332Z,99820.47
2023-04-20T11:30:49.190Z,99819.64
2023-04-20T11:33:29.443Z,99817.14
2023-04-20T11:35:57.521Z,99826.23
2023-04-20T11:38:42.902Z,99828.38
2023-04-20T11:41:10.459Z,99824.66
2023-04-20T11:43:37.812Z,99822.91
2023-04-20T11:46:35.243Z,99814.65
2023-04-20T11:49:04.184Z,99813.80
2023-04-20T11:51:31.713Z,99811.59
2023-04-20T11:53:58.867Z,99803.64
2023-04-20T11:56:26.434Z,99802.77
2023-04-20T11:58:53.738Z,99795.86
2023-04-20T12:01:21.036Z,99790.55
2023-04-20T12:03:48.458Z,99791.98
2023-04-20T12:06:15.963Z,99795.13
2023-04-20T12:08:43.502Z,99789.52
2023-04-20T12:11:10.766Z,99793.86
2023-04-20T12:13:38.226Z,99787.19
2023-04-20T12:16:06.434Z,99781.18
2023-04-20T12:18:33.747Z,99778.48
2023-04-20T12:21:01.016Z,99770.80
2023-04-20T12:23:28.349Z,99767.08
2023-04-20T12:25:55.697Z,99761.23
2023-04-20T12:28:23.159Z,99758.03
2023-04-20T12:30:50.716Z,99759.56
2023-04-20T12:33:18.174Z,99751.55
2023-04-20T12:35:45.558Z,99754.95
2023-04-20T12:38:14.552Z,99747.02
2023-04-20T12:40:41.797Z,99747.33
2023-04-20T12:43:08.935Z,99748.64
2023-04-20T12:45:36.810Z,99753.59
2023-04-20T12:48:04.596Z,99750.90
2023-04-20T12:50:31.910Z,99746.81
2023-04-20T12:52:59.165Z,99749.27
2023-04-20T12:55:26.422Z,99747.10
2023-04-20T12:57:53.664Z,99747.41
2023-04-20T13:00:21.534Z,99740.79
2023-04-20T13:02:49.787Z,99737.42
2023-04-20T13:05:16.984Z,99740.37
2023-04-20T13:07:44.720Z,99742.77
2023-04-20T13:10:12.186Z,99747.98
2023-04-20T13:12:40.074Z,99743.98
2023-04-20T13:15:08.761Z,99745.08
2023-04-20T13:17:36.785Z,99746.42
2023-04-20T13:20:05.914Z,99743.76
2023-04-20T13:22:35.738Z,99744.17
2023-04-20T13:25:05.932Z,99743.48
2023-04-20T13:27:33.081Z,99744.38
2023-04-20T13:30:00.305Z,99741.74
2023-04-20T13:32:27.494Z,99742.61
2023-04-20T13:34:54.744Z,99740.34
2023-04-20T13:37:22.292Z,99738.25
2023-04-20T13:39:49.542Z,99739.69
2023-04-20T13:42:16.693Z,99737.90
2023-04-20T13:44:43.934Z,99740.88
2023-04-20T13:47:11.300Z,99737.91
2023-04-20T13:49:38.448Z,99734.72
2023-04-20T13:52:05.718Z,99732.75
2023-04-20T13:54:33.056Z,99729.77
2023-04-20T13:57:01.136Z,99725.36
2023-04-20T13:59:28.630Z,99725.83
2023-04-20T14:01:55.850Z,99723.35
2023-04-20T14:04:23.509Z,99732.85
2023-04-20T14:06:51.983Z,99733.48
2023-04-20T14:09:19.357Z,99731.83
2023-04-20T14:11:46.712Z,99729.83
2023-04-20T14:14:14.200Z,99729.08
2023-04-20T14:16:46.113Z,99721.98
2023-04-20T14:19:13.672Z,99732.84
2023-04-20T14:21:40.887Z,99735.78
2023-04-20T14:24:08.826Z,99732.20
2023-04-20T14:26:36.455Z,99734.64
2023-04-20T14:29:04.520Z,99730.89
2023-04-20T14:31:32.316Z,99732.48
2023-04-20T14:33:59.584Z,99730.23
2023-04-20T14:36:27.401Z,99732.90
2023-04-20T14:38:55.276Z,99733.23
2023-04-20T14:41:22.537Z,99733.39
2023-04-20T14:43:49.781Z,99733.06
2023-04-20T14:46:18.193Z,99732.17
2023-04-20T14:48:46.042Z,99731.26
2023-04-20T14:51:13.585Z,99741.41
2023-04-20T14:53:40.779Z,99742.09
2023-04-20T14:56:08.102Z,99742.94
2023-04-20T14:58:36.971Z,99745.75
2023-04-20T15:01:04.533Z,99749.33
2023-04-20T15:03:32.329Z,99749.56
2023-04-20T15:06:01.184Z,99753.09
2023-04-20T15:08:28.551Z,99755.42
2023-04-20T15:10:56.407Z,99757.79
2023-04-20T15:13:23.974Z,99761.13
2023-04-20T15:15:54.238Z,99767.52
2023-04-20T15:18:22.869Z,99772.70
2023-04-20T15:20:51.859Z,99770.62
2023-04-20T15:23:19.560Z,99767.67
2023-04-20T15:25:47.103Z,99762.09
2023-04-20T15:28:15.158Z,99763.53
2023-04-20T15:30:42.709Z,99758.25
2023-04-20T15:33:10.630Z,99761.11
2023-04-20T15:35:38.187Z,99768.71
2023-04-20T15:38:08.893Z,99769.98
2023-04-20T15:40:38.375Z,99771.44
2023-04-20T15:43:06.243Z,99767.60
2023-04-20T15:45:33.782Z,99767.83
2023-04-20T15:48:01.532Z,99764.33
2023-04-20T15:50:29.682Z,99767.50
2023-04-20T15:52:57.211Z,99768.69
2023-04-20T15:55:25.600Z,99768.67
2023-04-20T15:57:56.821Z,99767.86
2023-04-20T16:00:24.903Z,99767.69
2023-04-20T16:02:53.879Z,99767.73
2023-04-20T16:05:21.572Z,99771.67
2023-04-20T16:07:48.850Z,99768.34
2023-04-20T16:10:19.213Z,99767.78
2023-04-20T16:12:46.886Z,99766.00
2023-04-20T16:15:14.126Z,99771.11
2023-04-20T16:17:43.891Z,99765.63
2023-04-20T16:20:12.461Z,99761.73
2023-04-20T16:22:40.380Z,99759.60
2023-04-20T16:25:12.596Z,99759.23
2023-04-20T16:27:42.928Z,99761.72
2023-04-20T16:30:12.275Z,99760.01
2023-04-20T16:32:41.659Z,99762.36
2023-04-20T16:35:10.434Z,99764.17
2023-04-20T16:37:38.467Z,99766.33
2023-04-20T16:40:08.954Z,99765.44
2023-04-20T16:42:36.635Z,99766.66
2023-04-20T16:45:07.822Z,99766.85
2023-04-20T16:47:40.165Z,99767.92
2023-04-20T16:50:09.002Z,99772.02
2023-04-20T16:52:37.445Z,99771.33
2023-04-20T16:55:05.874Z,99772.41
2023-04-20T16:57:33.686Z,99766.46
2023-04-20T17:00:02.286Z,99767.34
2023-04-20T17:02:32.783Z,99763.64
2023-04-20T17:05:03.071Z,99768.77
2023-04-20T17:07:30.919Z,99770.21
2023-04-20T17:09:59.611Z,99775.51
2023-04-20T17:12:27.310Z,99776.59
2023-04-20T17:14:56.357Z,99778.73
2023-04-20T17:17:25.764Z,99780.14
2023-04-20T17:19:54.214Z,99784.19
2023-04-20T17:22:22.702Z,99790.77
2023-04-20T17:24:51.893Z,99793.47
2023-04-20T17:27:20.160Z,99793.37
2023-04-20T17:29:47.844Z,99789.73
2023-04-20T17:32:15.619Z,99793.46
2023-04-20T17:34:48.912Z,99796.48
2023-04-20T17:37:20.046Z,99801.13
2023-04-20T17:39:47.824Z,99802.60
2023-04-20T17:42:18.615Z,99802.64
2023-04-20T17:44:45.949Z,99804.29
2023-04-20T17:47:14.454Z,99804.49
2023-04-20T17:49:43.047Z,99801.35
2023-04-20T17:52:15.839Z,99802.30
2023-04-20T17:54:43.427Z,99808.16
2023-04-20T17:57:13.805Z,99811.39
2023-04-20T17:59:45.490Z,99806.22
2023-04-20T18:02:13.233Z,99807.40
2023-04-20T18:04:41.762Z,99804.48
2023-04-20T18:07:09.674Z,99801.36
2023-04-20T18:09:38.583Z,99801.20
2023-04-20T18:12:12.683Z,99797.88
2023-04-20T18:14:40.893Z,99791.20
2023-04-20T18:17:08.441Z,99792.48
2023-04-20T18:19:36.218Z,99793.92
2023-04-20T18:22:06.194Z,99797.12
2023-04-20T18:24:33.503Z,99797.30
2023-04-20T18:27:01.620Z,99794.65
2023-04-20T18:29:29.629Z,99792.39
2023-04-20T18:31:58.849Z,99789.25
2023-04-20T18:34:31.802Z,99788.75
2023-04-20T18:36:59.239Z,99788.77
2023-04-20T18:39:27.006Z,99791.06
2023-04-20T18:41:54.965Z,99788.95
2023-04-20T18:44:22.654Z,99783.67
2023-04-20T18:46:50.569Z,99783.69
2023-04-20T18:49:17.947Z,99776.31
2023-04-20T18:51:45.508Z,99776.66
2023-04-20T18:54:12.871Z,99778.25
2023-04-20T18:56:40.964Z,99776.66
2023-04-20T18:59:10.229Z,99776.31
2023-04-20T19:01:40.148Z,99773.32
2023-04-20T19:04:08.437Z,99775.81
2023-04-20T19:06:37.413Z,99779.88
2023-04-20T19:09:08.245Z,99775.82
2023-04-20T19:11:36.050Z,99775.15
2023-04-20T19:14:07.135Z,99769.90
2023-04-20T19:16:34.873Z,99774.86
2023-04-20T19:19:03.617Z,99769.77
2023-04-20T19:21:32.736Z,99762.36
2023-04-20T19:24:02.638Z,99764.98
2023-04-20T19:26:30.844Z,99764.98
2023-04-20T19:28:59.007Z,99761.45
2023-04-20T19:31:31.710Z,99766.05
2023-04-20T19:34:00.195Z,99760.23
2023-04-20T19:36:28.101Z,99762.71
2023-04-20T19:38:55.817Z,99760.65
2023-04-20T19:41:26.031Z,99761.56
2023-04-20T19:43:53.439Z,99762.83
2023-04-20T19:46:21.767Z,99758.45
2023-04-20T19:48:49.502Z,99760.91
2023-04-20T19:51:16.947Z,99757.19
2023-04-20T19:53:45.139Z,99758.39
2023-04-20T19:56:12.423Z,99761.89
2023-04-20T19:58:39.519Z,99764.36
2023-04-20T20:01:07.003Z,99759.79
2023-04-20T20:03:34.934Z,99765.47
2023-04-20T20:06:04.642Z,99768.67
2023-04-20T20:08:32.639Z,99768.52
2023-04-20T20:10:59.990Z,99769.76
2023-04-20T20:13:27.522Z,99770.30
2023-04-20T20:16:03.724Z,99774.16
2023-04-20T20:18:31.456Z,99769.55
2023-04-20T20:20:58.698Z,99765.64
2023-04-20T20:23:26.053Z,99765.79
2023-04-20T20:25:53.532Z,99765.95
2023-04-20T20:28:21.240Z,99763.64
2023-04-20T20:30:48.556Z,99765.98
2023-04-20T20:33:15.981Z,99763.06
2023-04-20T20:35:44.096Z,99765.15
2023-04-20T20:38:11.828Z,99762.29
2023-04-20T20:40:39.575Z,99754.63
2023-04-20T20:43:06.945Z,99752.63
2023-04-20T20:45:34.409Z,99751.22
2023-04-20T20:48:02.115Z,99748.06
2023-04-20T20:50:29.814Z,99746.14
2023-04-20T20:52:57.281Z,99745.12
2023-04-20T20:55:25.037Z,99746.89
2023-04-20T20:57:52.351Z,99745.51
2023-04-20T21:00:20.009Z,99743.70
2023-04-20T21:02:47.372Z,99741.19
2023-04-20T21:05:14.618Z,99742.04
2023-04-20T21:07:44.382Z,99741.36
2023-04-20T21:10:11.981Z,99738.55
2023-04-20T21:12:40.006Z,99734.66
2023-04-20T21:15:09.736Z,99730.84
2023-04-20T21:17:39.372Z,99729.27
2023-04-20T21:20:09.136Z,99725.95
2023-04-20T21:22:38.022Z,99727.19
2023-04-20T21:25:06.096Z,99728.60
2023-04-20T21:27:33.764Z,99726.14
2023-04-20T21:30:03.059Z,99726.12
2023-04-20T21:32:30.817Z,99721.00
2023-04-20T21:34:57.880Z,99723.33
2023-04-20T21:37:25.125Z,99724.23
2023-04-20T21:39:52.386Z,99719.67
2023-04-20T21:42:19.829Z,99713.52
2023-04-20T21:44:47.083Z,99708.77
2023-04-20T21:47:14.330Z,99707.73
2023-04-20T21:49:43.320Z,99707.02
2023-04-20T21:52:10.577Z,99707.70
2023-04-20T21:54:39.672Z,99704.01
2023-04-20T21:57:06.924Z,99701.56
2023-04-20T21:59:34.812Z,99697.35
2023-04-20T22:02:02.290Z,99694.00
2023-04-20T22:04:30.056Z,99689.45
2023-04-20T22:06:57.501Z,99690.32
2023-04-20T22:09:25.445Z,99690.31
2023-04-20T22:11:53.301Z,99689.45
2023-04-20T22:14:20.861Z,99688.61
2023-04-20T22:16:48.044Z,99683.72
2023-04-20T22:19:15.992Z,99680.23
2023-04-20T22:21:43.432Z,99677.79
2023-04-20T22:24:10.603Z,99677.80
2023-04-20T22:26:37.730Z,99677.80
2023-04-20T22:29:04.948Z,99676.57
2023-04-20T22:31:32.716Z,99670.94
2023-04-20T22:34:00.203Z,99669.35
2023-04-20T22:36:27.825Z,99672.52
2023-04-20T22:38:54.993Z,99670.27
2023-04-20T22:41:22.272Z,99670.66
2023-04-20T22:43:49.530Z,99664.16
2023-04-20T22:46:16.945Z,99663.64
2023-04-20T22:48:47.248Z,99659.95
2023-04-20T22:51:16.815Z,99659.73
2023-04-20T22:53:44.161Z,99655.85
2023-04-20T22:56:11.428Z,99652.33
2023-04-20T22:58:38.764Z,99650.94
2023-04-20T23:01:05.949Z,99649.89
2023-04-20T23:03:33.472Z,99647.98
2023-04-20T23:06:00.937Z,99651.14
2023-04-20T23:08:28.199Z,99650.42
2023-04-20T23:10:55.178Z,99647.92
2023-04-20T23:13:25.663Z,99649.16
2023-04-20T23:15:52.926Z,99643.52
2023-04-20T23:18:20.704Z,99645.84
2023-04-20T23:20:47.921Z,99646.36
2023-04-20T23:23:15.190Z,99648.13
2023-04-20T23:25:42.792Z,99642.65
2023-04-20T23:28:10.419Z,99639.45
2023-04-20T23:30:37.655Z,99641.33
2023-04-20T23:33:05.144Z,99639.73
2023-04-20T23:35:33.115Z,99646.63
2023-04-20T23:38:00.531Z,99642.05
2023-04-20T23:40:27.683Z,99643.63
2023-04-20T23:42:54.840Z,99640.27
2023-04-20T23:45:22.497Z,99641.14
2023-04-20T23:47:49.670Z,99641.28
2023-04-20T23:50:17.003Z,99638.77
2023-04-20T23:52:44.262Z,99630.17
2023-04-20T23:55:11.398Z,99633.17
2023-04-20T23:57:39.475Z,99628.97
